sensor_id;sensor_type;location;lat;lon;timestamp;P1;durP1;ratioP1;P2;durP2;ratioP2
16159;SDS011;8185;57.818;15.224;2022-11-03T00:00:35;18.33;;;4.17;;
16159;SDS011;8185;57.818;15.224;2022-11-03T00:03:02;10.73;;;3.47;;
16159;SDS011;8185;57.818;15.224;2022-11-03T00:05:29;9.20;;;2.93;;
16159;SDS011;8185;57.818;15.224;2022-11-03T00:08:18;10.67;;;2.87;;
16159;SDS011;8185;57.818;15.224;2022-11-03T00:10:45;16.83;;;6.97;;
16159;SDS011;8185;57.818;15.224;2022-11-03T00:13:13;14.67;;;5.23;;
16159;SDS011;8185;57.818;15.224;2022-11-03T00:15:46;12.07;;;3.63;;
16159;SDS011;8185;57.818;15.224;2022-11-03T00:18:14;6.93;;;2.70;;
16159;SDS011;8185;57.818;15.224;2022-11-03T00:20:41;16.80;;;3.47;;
16159;SDS011;8185;57.818;15.224;2022-11-03T00:23:08;13.77;;;2.60;;
16159;SDS011;8185;57.818;15.224;2022-11-03T00:25:37;8.07;;;2.53;;
16159;SDS011;8185;57.818;15.224;2022-11-03T00:28:04;11.73;;;3.90;;
16159;SDS011;8185;57.818;15.224;2022-11-03T00:30:31;6.60;;;2.57;;
16159;SDS011;8185;57.818;15.224;2022-11-03T00:32:59;14.07;;;2.47;;
16159;SDS011;8185;57.818;15.224;2022-11-03T00:35:26;12.07;;;4.07;;
16159;SDS011;8185;57.818;15.224;2022-11-03T00:37:53;18.73;;;3.20;;
16159;SDS011;8185;57.818;15.224;2022-11-03T00:40:20;9.80;;;3.17;;
16159;SDS011;8185;57.818;15.224;2022-11-03T00:42:49;9.47;;;3.07;;
16159;SDS011;8185;57.818;15.224;2022-11-03T00:45:16;8.47;;;2.70;;
16159;SDS011;8185;57.818;15.224;2022-11-03T00:47:43;11.17;;;2.77;;
16159;SDS011;8185;57.818;15.224;2022-11-03T00:50:24;8.43;;;2.90;;
16159;SDS011;8185;57.818;15.224;2022-11-03T00:52:52;14.57;;;3.10;;
16159;SDS011;8185;57.818;15.224;2022-11-03T00:55:19;12.17;;;2.17;;
16159;SDS011;8185;57.818;15.224;2022-11-03T00:57:46;6.83;;;1.90;;
16159;SDS011;8185;57.818;15.224;2022-11-03T01:00:15;11.23;;;2.30;;
16159;SDS011;8185;57.818;15.224;2022-11-03T01:02:43;20.47;;;3.17;;
16159;SDS011;8185;57.818;15.224;2022-11-03T01:05:10;9.00;;;2.10;;
16159;SDS011;8185;57.818;15.224;2022-11-03T01:07:55;13.33;;;2.57;;
16159;SDS011;8185;57.818;15.224;2022-11-03T01:10:22;14.77;;;2.60;;
16159;SDS011;8185;57.818;15.224;2022-11-03T01:12:49;8.17;;;2.10;;
16159;SDS011;8185;57.818;15.224;2022-11-03T01:15:18;12.00;;;2.83;;
16159;SDS011;8185;57.818;15.224;2022-11-03T01:17:45;11.93;;;2.90;;
16159;SDS011;8185;57.818;15.224;2022-11-03T01:20:13;13.27;;;2.00;;
16159;SDS011;8185;57.818;15.224;2022-11-03T01:22:40;7.97;;;2.20;;
16159;SDS011;8185;57.818;15.224;2022-11-03T01:25:07;9.20;;;2.73;;
16159;SDS011;8185;57.818;15.224;2022-11-03T01:27:35;14.70;;;2.80;;
16159;SDS011;8185;57.818;15.224;2022-11-03T01:30:02;14.67;;;4.33;;
16159;SDS011;8185;57.818;15.224;2022-11-03T01:32:31;16.13;;;4.27;;
16159;SDS011;8185;57.818;15.224;2022-11-03T01:34:58;11.80;;;2.50;;
16159;SDS011;8185;57.818;15.224;2022-11-03T01:37:25;13.33;;;2.40;;
16159;SDS011;8185;57.818;15.224;2022-11-03T01:39:52;8.80;;;2.23;;
16159;SDS011;8185;57.818;15.224;2022-11-03T01:42:20;8.43;;;2.20;;
16159;SDS011;8185;57.818;15.224;2022-11-03T01:44:47;7.40;;;2.70;;
16159;SDS011;8185;57.818;15.224;2022-11-03T01:47:18;11.30;;;2.03;;
16159;SDS011;8185;57.818;15.224;2022-11-03T01:49:51;12.73;;;2.23;;
16159;SDS011;8185;57.818;15.224;2022-11-03T01:52:22;12.67;;;2.50;;
16159;SDS011;8185;57.818;15.224;2022-11-03T01:54:55;12.07;;;3.40;;
16159;SDS011;8185;57.818;15.224;2022-11-03T01:57:26;11.37;;;2.80;;
16159;SDS011;8185;57.818;15.224;2022-11-03T01:59:58;18.17;;;2.60;;
16159;SDS011;8185;57.818;15.224;2022-11-03T02:02:27;10.03;;;2.20;;
16159;SDS011;8185;57.818;15.224;2022-11-03T02:04:56;13.07;;;1.70;;
16159;SDS011;8185;57.818;15.224;2022-11-03T02:07:27;10.13;;;2.60;;
16159;SDS011;8185;57.818;15.224;2022-11-03T02:10:00;10.80;;;2.90;;
16159;SDS011;8185;57.818;15.224;2022-11-03T02:12:28;12.03;;;5.50;;
16159;SDS011;8185;57.818;15.224;2022-11-03T02:14:56;11.40;;;2.53;;
16159;SDS011;8185;57.818;15.224;2022-11-03T02:17:28;13.33;;;3.70;;
16159;SDS011;8185;57.818;15.224;2022-11-03T02:20:00;9.03;;;2.67;;
16159;SDS011;8185;57.818;15.224;2022-11-03T02:25:35;10.40;;;2.10;;
16159;SDS011;8185;57.818;15.224;2022-11-03T02:28:08;14.50;;;5.43;;
16159;SDS011;8185;57.818;15.224;2022-11-03T02:30:37;14.43;;;4.50;;
16159;SDS011;8185;57.818;15.224;2022-11-03T02:33:10;16.00;;;3.37;;
16159;SDS011;8185;57.818;15.224;2022-11-03T02:35:52;21.07;;;2.80;;
16159;SDS011;8185;57.818;15.224;2022-11-03T02:38:23;15.20;;;2.70;;
16159;SDS011;8185;57.818;15.224;2022-11-03T02:40:55;6.40;;;1.90;;
16159;SDS011;8185;57.818;15.224;2022-11-03T02:43:28;16.70;;;1.97;;
16159;SDS011;8185;57.818;15.224;2022-11-03T02:45:56;12.67;;;2.17;;
16159;SDS011;8185;57.818;15.224;2022-11-03T02:48:24;11.27;;;2.10;;
16159;SDS011;8185;57.818;15.224;2022-11-03T02:50:51;13.23;;;2.97;;
16159;SDS011;8185;57.818;15.224;2022-11-03T02:53:20;12.60;;;2.27;;
16159;SDS011;8185;57.818;15.224;2022-11-03T02:55:49;10.33;;;2.27;;
16159;SDS011;8185;57.818;15.224;2022-11-03T02:58:23;12.67;;;2.40;;
16159;SDS011;8185;57.818;15.224;2022-11-03T03:00:56;10.20;;;2.20;;
16159;SDS011;8185;57.818;15.224;2022-11-03T03:03:28;10.37;;;2.00;;
16159;SDS011;8185;57.818;15.224;2022-11-03T03:06:01;8.77;;;1.60;;
16159;SDS011;8185;57.818;15.224;2022-11-03T03:08:31;9.80;;;1.90;;
16159;SDS011;8185;57.818;15.224;2022-11-03T03:11:01;12.03;;;2.30;;
16159;SDS011;8185;57.818;15.224;2022-11-03T03:13:31;10.93;;;2.77;;
16159;SDS011;8185;57.818;15.224;2022-11-03T03:16:05;8.73;;;2.57;;
16159;SDS011;8185;57.818;15.224;2022-11-03T03:18:40;14.73;;;2.53;;
16159;SDS011;8185;57.818;15.224;2022-11-03T03:21:16;11.53;;;3.20;;
16159;SDS011;8185;57.818;15.224;2022-11-03T03:23:47;7.50;;;1.90;;
16159;SDS011;8185;57.818;15.224;2022-11-03T03:26:20;11.63;;;2.33;;
16159;SDS011;8185;57.818;15.224;2022-11-03T03:28:54;10.60;;;2.33;;
16159;SDS011;8185;57.818;15.224;2022-11-03T03:31:25;12.10;;;2.20;;
16159;SDS011;8185;57.818;15.224;2022-11-03T03:33:56;10.50;;;1.87;;
16159;SDS011;8185;57.818;15.224;2022-11-03T03:36:25;13.70;;;1.97;;
16159;SDS011;8185;57.818;15.224;2022-11-03T03:38:56;13.37;;;2.30;;
16159;SDS011;8185;57.818;15.224;2022-11-03T03:41:28;10.13;;;2.50;;
16159;SDS011;8185;57.818;15.224;2022-11-03T03:43:59;16.67;;;2.53;;
16159;SDS011;8185;57.818;15.224;2022-11-03T03:46:31;10.30;;;2.30;;
16159;SDS011;8185;57.818;15.224;2022-11-03T03:49:02;13.60;;;2.27;;
16159;SDS011;8185;57.818;15.224;2022-11-03T03:51:30;11.80;;;2.40;;
16159;SDS011;8185;57.818;15.224;2022-11-03T03:53:59;14.93;;;2.70;;
16159;SDS011;8185;57.818;15.224;2022-11-03T03:56:27;6.93;;;2.17;;
16159;SDS011;8185;57.818;15.224;2022-11-03T03:59:00;8.77;;;2.03;;
16159;SDS011;8185;57.818;15.224;2022-11-03T04:01:27;15.23;;;3.53;;
16159;SDS011;8185;57.818;15.224;2022-11-03T04:03:54;16.93;;;2.73;;
16159;SDS011;8185;57.818;15.224;2022-11-03T04:06:22;13.00;;;2.47;;
16159;SDS011;8185;57.818;15.224;2022-11-03T04:08:49;12.70;;;2.37;;
16159;SDS011;8185;57.818;15.224;2022-11-03T04:11:16;14.13;;;2.40;;
16159;SDS011;8185;57.818;15.224;2022-11-03T04:14:03;11.53;;;2.10;;
16159;SDS011;8185;57.818;15.224;2022-11-03T04:16:48;11.70;;;3.07;;
16159;SDS011;8185;57.818;15.224;2022-11-03T04:19:33;14.13;;;2.10;;
16159;SDS011;8185;57.818;15.224;2022-11-03T04:22:17;8.13;;;2.10;;
16159;SDS011;8185;57.818;15.224;2022-11-03T04:24:46;9.17;;;1.83;;
16159;SDS011;8185;57.818;15.224;2022-11-03T04:27:24;12.40;;;2.13;;
16159;SDS011;8185;57.818;15.224;2022-11-03T04:29:56;14.13;;;2.13;;
16159;SDS011;8185;57.818;15.224;2022-11-03T04:32:32;12.03;;;2.87;;
16159;SDS011;8185;57.818;15.224;2022-11-03T04:35:00;15.77;;;3.60;;
16159;SDS011;8185;57.818;15.224;2022-11-03T04:37:27;10.40;;;2.33;;
16159;SDS011;8185;57.818;15.224;2022-11-03T04:39:56;17.53;;;2.17;;
16159;SDS011;8185;57.818;15.224;2022-11-03T04:42:25;11.17;;;2.27;;
16159;SDS011;8185;57.818;15.224;2022-11-03T04:44:57;14.80;;;3.20;;
16159;SDS011;8185;57.818;15.224;2022-11-03T04:47:27;10.37;;;1.80;;
16159;SDS011;8185;57.818;15.224;2022-11-03T04:49:56;8.97;;;2.27;;
16159;SDS011;8185;57.818;15.224;2022-11-03T04:52:24;12.70;;;2.50;;
16159;SDS011;8185;57.818;15.224;2022-11-03T04:54:52;8.80;;;2.27;;
16159;SDS011;8185;57.818;15.224;2022-11-03T04:57:19;13.93;;;3.13;;
16159;SDS011;8185;57.818;15.224;2022-11-03T04:59:48;15.87;;;2.67;;
16159;SDS011;8185;57.818;15.224;2022-11-03T05:02:18;15.00;;;3.10;;
16159;SDS011;8185;57.818;15.224;2022-11-03T05:04:46;14.60;;;2.63;;
16159;SDS011;8185;57.818;15.224;2022-11-03T05:07:21;11.00;;;2.77;;
16159;SDS011;8185;57.818;15.224;2022-11-03T05:09:51;13.77;;;3.60;;
16159;SDS011;8185;57.818;15.224;2022-11-03T05:12:18;13.13;;;3.33;;
16159;SDS011;8185;57.818;15.224;2022-11-03T05:14:46;11.13;;;2.20;;
16159;SDS011;8185;57.818;15.224;2022-11-03T05:22:16;6.73;;;2.60;;
16159;SDS011;8185;57.818;15.224;2022-11-03T05:24:46;13.03;;;3.63;;
16159;SDS011;8185;57.818;15.224;2022-11-03T05:27:15;10.27;;;2.70;;
16159;SDS011;8185;57.818;15.224;2022-11-03T05:29:45;10.80;;;3.03;;
16159;SDS011;8185;57.818;15.224;2022-11-03T05:32:14;9.93;;;2.10;;
16159;SDS011;8185;57.818;15.224;2022-11-03T05:34:45;7.03;;;2.50;;
16159;SDS011;8185;57.818;15.224;2022-11-03T05:37:23;12.57;;;2.80;;
16159;SDS011;8185;57.818;15.224;2022-11-03T05:39:52;7.77;;;2.47;;
16159;SDS011;8185;57.818;15.224;2022-11-03T05:42:28;12.13;;;3.10;;
16159;SDS011;8185;57.818;15.224;2022-11-03T05:45:01;9.37;;;2.33;;
16159;SDS011;8185;57.818;15.224;2022-11-03T05:47:31;8.67;;;2.00;;
16159;SDS011;8185;57.818;15.224;2022-11-03T05:50:10;9.83;;;2.30;;
16159;SDS011;8185;57.818;15.224;2022-11-03T05:52:42;8.10;;;1.90;;
16159;SDS011;8185;57.818;15.224;2022-11-03T05:55:15;9.47;;;2.53;;
16159;SDS011;8185;57.818;15.224;2022-11-03T05:57:50;9.53;;;2.03;;
16159;SDS011;8185;57.818;15.224;2022-11-03T06:00:24;14.50;;;2.60;;
16159;SDS011;8185;57.818;15.224;2022-11-03T06:02:54;9.43;;;2.17;;
16159;SDS011;8185;57.818;15.224;2022-11-03T06:05:23;8.07;;;1.93;;
16159;SDS011;8185;57.818;15.224;2022-11-03T06:07:52;10.50;;;2.10;;
16159;SDS011;8185;57.818;15.224;2022-11-03T06:10:23;11.97;;;2.10;;
16159;SDS011;8185;57.818;15.224;2022-11-03T06:12:52;5.67;;;1.60;;
16159;SDS011;8185;57.818;15.224;2022-11-03T06:15:28;8.80;;;2.17;;
16159;SDS011;8185;57.818;15.224;2022-11-03T06:17:56;9.30;;;2.40;;
16159;SDS011;8185;57.818;15.224;2022-11-03T06:20:26;12.10;;;2.27;;
16159;SDS011;8185;57.818;15.224;2022-11-03T06:22:54;12.47;;;2.30;;
16159;SDS011;8185;57.818;15.224;2022-11-03T06:25:26;8.60;;;2.47;;
16159;SDS011;8185;57.818;15.224;2022-11-03T06:27:58;14.43;;;2.70;;
16159;SDS011;8185;57.818;15.224;2022-11-03T06:30:29;10.53;;;3.13;;
16159;SDS011;8185;57.818;15.224;2022-11-03T06:32:59;10.83;;;2.60;;
16159;SDS011;8185;57.818;15.224;2022-11-03T06:35:33;11.17;;;2.80;;
16159;SDS011;8185;57.818;15.224;2022-11-03T06:38:01;12.47;;;3.03;;
16159;SDS011;8185;57.818;15.224;2022-11-03T06:40:35;14.03;;;3.13;;
16159;SDS011;8185;57.818;15.224;2022-11-03T06:43:11;15.33;;;3.20;;
16159;SDS011;8185;57.818;15.224;2022-11-03T06:45:45;15.73;;;2.77;;
16159;SDS011;8185;57.818;15.224;2022-11-03T06:48:19;17.77;;;3.03;;
16159;SDS011;8185;57.818;15.224;2022-11-03T06:50:50;9.27;;;2.40;;
16159;SDS011;8185;57.818;15.224;2022-11-03T06:53:19;10.13;;;3.00;;
16159;SDS011;8185;57.818;15.224;2022-11-03T06:55:49;12.43;;;2.40;;
16159;SDS011;8185;57.818;15.224;2022-11-03T06:58:18;6.97;;;2.47;;
16159;SDS011;8185;57.818;15.224;2022-11-03T07:00:52;11.33;;;2.30;;
16159;SDS011;8185;57.818;15.224;2022-11-03T07:03:22;11.13;;;2.23;;
16159;SDS011;8185;57.818;15.224;2022-11-03T07:05:57;7.57;;;2.37;;
16159;SDS011;8185;57.818;15.224;2022-11-03T07:08:27;10.73;;;2.13;;
16159;SDS011;8185;57.818;15.224;2022-11-03T07:10:59;10.63;;;2.50;;
16159;SDS011;8185;57.818;15.224;2022-11-03T07:13:30;10.73;;;2.77;;
16159;SDS011;8185;57.818;15.224;2022-11-03T07:15:59;12.30;;;2.27;;
16159;SDS011;8185;57.818;15.224;2022-11-03T07:18:28;9.43;;;2.57;;
16159;SDS011;8185;57.818;15.224;2022-11-03T07:21:01;10.03;;;3.53;;
16159;SDS011;8185;57.818;15.224;2022-11-03T07:23:32;5.20;;;2.20;;
16159;SDS011;8185;57.818;15.224;2022-11-03T07:25:59;10.47;;;2.37;;
16159;SDS011;8185;57.818;15.224;2022-11-03T07:28:31;12.07;;;2.70;;
16159;SDS011;8185;57.818;15.224;2022-11-03T07:31:09;11.20;;;2.70;;
16159;SDS011;8185;57.818;15.224;2022-11-03T07:33:41;9.50;;;3.17;;
16159;SDS011;8185;57.818;15.224;2022-11-03T07:36:10;14.77;;;3.23;;
16159;SDS011;8185;57.818;15.224;2022-11-03T07:38:41;10.80;;;2.37;;
16159;SDS011;8185;57.818;15.224;2022-11-03T07:41:11;9.13;;;2.00;;
16159;SDS011;8185;57.818;15.224;2022-11-03T07:43:43;10.80;;;2.50;;
16159;SDS011;8185;57.818;15.224;2022-11-03T07:46:17;9.00;;;2.07;;
16159;SDS011;8185;57.818;15.224;2022-11-03T07:48:47;9.90;;;2.90;;
16159;SDS011;8185;57.818;15.224;2022-11-03T07:53:46;8.77;;;2.80;;
16159;SDS011;8185;57.818;15.224;2022-11-03T07:56:17;5.67;;;2.30;;
16159;SDS011;8185;57.818;15.224;2022-11-03T07:58:46;10.97;;;2.83;;
16159;SDS011;8185;57.818;15.224;2022-11-03T08:01:26;8.67;;;2.23;;
16159;SDS011;8185;57.818;15.224;2022-11-03T08:03:56;16.47;;;2.80;;
16159;SDS011;8185;57.818;15.224;2022-11-03T08:06:30;8.70;;;2.30;;
16159;SDS011;8185;57.818;15.224;2022-11-03T08:08:57;8.57;;;2.63;;
16159;SDS011;8185;57.818;15.224;2022-11-03T08:11:24;12.97;;;3.53;;
16159;SDS011;8185;57.818;15.224;2022-11-03T08:13:52;10.23;;;2.80;;
16159;SDS011;8185;57.818;15.224;2022-11-03T08:16:19;9.97;;;2.80;;
16159;SDS011;8185;57.818;15.224;2022-11-03T08:18:47;11.93;;;3.10;;
16159;SDS011;8185;57.818;15.224;2022-11-03T08:21:14;11.10;;;2.73;;
16159;SDS011;8185;57.818;15.224;2022-11-03T08:23:43;12.27;;;2.90;;
16159;SDS011;8185;57.818;15.224;2022-11-03T08:26:10;13.33;;;3.20;;
16159;SDS011;8185;57.818;15.224;2022-11-03T08:28:37;8.50;;;2.73;;
16159;SDS011;8185;57.818;15.224;2022-11-03T08:31:05;11.27;;;2.67;;
16159;SDS011;8185;57.818;15.224;2022-11-03T08:33:32;15.27;;;2.97;;
16159;SDS011;8185;57.818;15.224;2022-11-03T08:36:01;8.90;;;2.70;;
16159;SDS011;8185;57.818;15.224;2022-11-03T08:38:29;6.93;;;2.60;;
16159;SDS011;8185;57.818;15.224;2022-11-03T08:40:58;14.07;;;2.80;;
16159;SDS011;8185;57.818;15.224;2022-11-03T08:43:26;9.23;;;2.60;;
16159;SDS011;8185;57.818;15.224;2022-11-03T08:45:53;8.83;;;2.90;;
16159;SDS011;8185;57.818;15.224;2022-11-03T08:48:21;12.10;;;2.93;;
16159;SDS011;8185;57.818;15.224;2022-11-03T08:50:51;10.90;;;2.57;;
16159;SDS011;8185;57.818;15.224;2022-11-03T08:53:20;6.73;;;2.30;;
16159;SDS011;8185;57.818;15.224;2022-11-03T08:55:47;11.53;;;2.83;;
16159;SDS011;8185;57.818;15.224;2022-11-03T08:58:16;10.77;;;2.57;;
16159;SDS011;8185;57.818;15.224;2022-11-03T09:00:43;8.07;;;2.70;;
16159;SDS011;8185;57.818;15.224;2022-11-03T09:03:10;9.30;;;2.77;;
16159;SDS011;8185;57.818;15.224;2022-11-03T09:05:38;12.40;;;3.13;;
16159;SDS011;8185;57.818;15.224;2022-11-03T09:08:05;6.73;;;2.53;;
16159;SDS011;8185;57.818;15.224;2022-11-03T09:10:32;11.00;;;2.50;;
16159;SDS011;8185;57.818;15.224;2022-11-03T09:13:00;11.50;;;2.80;;
16159;SDS011;8185;57.818;15.224;2022-11-03T09:15:29;6.70;;;2.77;;
16159;SDS011;8185;57.818;15.224;2022-11-03T09:17:56;9.37;;;2.50;;
16159;SDS011;8185;57.818;15.224;2022-11-03T09:20:23;6.33;;;2.20;;
16159;SDS011;8185;57.818;15.224;2022-11-03T09:22:51;12.53;;;2.70;;
16159;SDS011;8185;57.818;15.224;2022-11-03T09:25:18;6.97;;;2.13;;
16159;SDS011;8185;57.818;15.224;2022-11-03T09:27:45;6.53;;;2.43;;
16159;SDS011;8185;57.818;15.224;2022-11-03T09:30:12;8.23;;;2.47;;
16159;SDS011;8185;57.818;15.224;2022-11-03T09:32:41;8.47;;;2.40;;
16159;SDS011;8185;57.818;15.224;2022-11-03T09:35:08;4.73;;;2.27;;
16159;SDS011;8185;57.818;15.224;2022-11-03T09:37:36;6.93;;;1.90;;
16159;SDS011;8185;57.818;15.224;2022-11-03T09:40:03;5.00;;;1.93;;
16159;SDS011;8185;57.818;15.224;2022-11-03T09:42:31;9.33;;;1.93;;
16159;SDS011;8185;57.818;15.224;2022-11-03T09:45:00;8.03;;;2.13;;
16159;SDS011;8185;57.818;15.224;2022-11-03T09:47:30;6.90;;;1.63;;
16159;SDS011;8185;57.818;15.224;2022-11-03T09:50:00;8.20;;;1.83;;
16159;SDS011;8185;57.818;15.224;2022-11-03T09:52:28;9.97;;;2.10;;
16159;SDS011;8185;57.818;15.224;2022-11-03T09:54:57;7.80;;;1.87;;
16159;SDS011;8185;57.818;15.224;2022-11-03T09:57:25;4.63;;;1.60;;
16159;SDS011;8185;57.818;15.224;2022-11-03T09:59:53;4.40;;;1.90;;
16159;SDS011;8185;57.818;15.224;2022-11-03T10:02:22;6.93;;;1.90;;
16159;SDS011;8185;57.818;15.224;2022-11-03T10:04:52;9.83;;;2.47;;
16159;SDS011;8185;57.818;15.224;2022-11-03T10:07:23;5.47;;;2.30;;
16159;SDS011;8185;57.818;15.224;2022-11-03T10:09:52;8.97;;;2.00;;
16159;SDS011;8185;57.818;15.224;2022-11-03T10:12:21;8.97;;;1.80;;
16159;SDS011;8185;57.818;15.224;2022-11-03T10:14:50;6.90;;;2.00;;
16159;SDS011;8185;57.818;15.224;2022-11-03T10:17:20;6.47;;;1.80;;
16159;SDS011;8185;57.818;15.224;2022-11-03T10:19:56;6.13;;;1.87;;
16159;SDS011;8185;57.818;15.224;2022-11-03T10:22:25;7.17;;;2.13;;
16159;SDS011;8185;57.818;15.224;2022-11-03T10:28:02;9.17;;;2.30;;
16159;SDS011;8185;57.818;15.224;2022-11-03T10:30:47;8.20;;;2.10;;
16159;SDS011;8185;57.818;15.224;2022-11-03T10:33:23;10.03;;;1.77;;
16159;SDS011;8185;57.818;15.224;2022-11-03T10:35:52;6.57;;;2.13;;
16159;SDS011;8185;57.818;15.224;2022-11-03T10:38:23;5.33;;;1.80;;
16159;SDS011;8185;57.818;15.224;2022-11-03T10:40:53;5.20;;;1.67;;
16159;SDS011;8185;57.818;15.224;2022-11-03T10:43:20;7.10;;;1.90;;
16159;SDS011;8185;57.818;15.224;2022-11-03T10:45:48;8.50;;;2.00;;
16159;SDS011;8185;57.818;15.224;2022-11-03T10:48:19;6.87;;;1.70;;
16159;SDS011;8185;57.818;15.224;2022-11-03T10:50:50;9.03;;;3.27;;
16159;SDS011;8185;57.818;15.224;2022-11-03T10:53:18;7.03;;;1.90;;
16159;SDS011;8185;57.818;15.224;2022-11-03T10:55:47;3.63;;;1.50;;
16159;SDS011;8185;57.818;15.224;2022-11-03T10:58:15;5.73;;;2.27;;
16159;SDS011;8185;57.818;15.224;2022-11-03T11:00:42;4.77;;;2.10;;
16159;SDS011;8185;57.818;15.224;2022-11-03T11:03:09;4.43;;;2.07;;
16159;SDS011;8185;57.818;15.224;2022-11-03T11:05:42;8.00;;;1.50;;
16159;SDS011;8185;57.818;15.224;2022-11-03T11:08:10;8.80;;;2.20;;
16159;SDS011;8185;57.818;15.224;2022-11-03T11:10:42;6.10;;;2.10;;
16159;SDS011;8185;57.818;15.224;2022-11-03T11:13:23;10.40;;;2.10;;
16159;SDS011;8185;57.818;15.224;2022-11-03T11:15:56;4.87;;;1.60;;
16159;SDS011;8185;57.818;15.224;2022-11-03T11:33:27;5.53;;;1.20;;
16159;SDS011;8185;57.818;15.224;2022-11-03T11:38:57;4.90;;;1.33;;
16159;SDS011;8185;57.818;15.224;2022-11-03T11:47:25;7.57;;;1.93;;
16159;SDS011;8185;57.818;15.224;2022-11-03T11:50:28;7.87;;;1.60;;
16159;SDS011;8185;57.818;15.224;2022-11-03T11:53:09;8.20;;;1.53;;
16159;SDS011;8185;57.818;15.224;2022-11-03T11:55:40;8.53;;;1.53;;
16159;SDS011;8185;57.818;15.224;2022-11-03T11:58:16;6.80;;;1.60;;
16159;SDS011;8185;57.818;15.224;2022-11-03T12:00:55;6.83;;;1.33;;
16159;SDS011;8185;57.818;15.224;2022-11-03T12:03:32;8.30;;;2.13;;
16159;SDS011;8185;57.818;15.224;2022-11-03T12:06:04;5.87;;;1.40;;
16159;SDS011;8185;57.818;15.224;2022-11-03T12:08:32;5.17;;;1.87;;
16159;SDS011;8185;57.818;15.224;2022-11-03T12:11:00;6.97;;;1.90;;
16159;SDS011;8185;57.818;15.224;2022-11-03T12:13:42;5.73;;;1.50;;
16159;SDS011;8185;57.818;15.224;2022-11-03T12:22:05;3.27;;;1.20;;
16159;SDS011;8185;57.818;15.224;2022-11-03T12:30:11;4.73;;;1.13;;
16159;SDS011;8185;57.818;15.224;2022-11-03T12:32:43;4.97;;;1.33;;
16159;SDS011;8185;57.818;15.224;2022-11-03T12:35:11;7.87;;;1.57;;
16159;SDS011;8185;57.818;15.224;2022-11-03T12:37:40;5.50;;;1.90;;
16159;SDS011;8185;57.818;15.224;2022-11-03T12:40:08;6.63;;;1.77;;
16159;SDS011;8185;57.818;15.224;2022-11-03T12:42:38;6.47;;;1.60;;
16159;SDS011;8185;57.818;15.224;2022-11-03T12:45:05;4.70;;;1.20;;
16159;SDS011;8185;57.818;15.224;2022-11-03T12:47:33;6.67;;;1.33;;
16159;SDS011;8185;57.818;15.224;2022-11-03T12:50:00;6.93;;;1.40;;
16159;SDS011;8185;57.818;15.224;2022-11-03T12:52:28;4.13;;;1.10;;
16159;SDS011;8185;57.818;15.224;2022-11-03T12:54:57;3.87;;;1.20;;
16159;SDS011;8185;57.818;15.224;2022-11-03T12:57:24;7.10;;;2.03;;
16159;SDS011;8185;57.818;15.224;2022-11-03T12:59:51;8.00;;;1.70;;
16159;SDS011;8185;57.818;15.224;2022-11-03T13:02:19;8.43;;;1.57;;
16159;SDS011;8185;57.818;15.224;2022-11-03T13:04:46;4.10;;;1.13;;
16159;SDS011;8185;57.818;15.224;2022-11-03T13:07:14;5.27;;;1.20;;
16159;SDS011;8185;57.818;15.224;2022-11-03T13:09:41;5.40;;;1.30;;
16159;SDS011;8185;57.818;15.224;2022-11-03T13:12:11;5.87;;;1.80;;
16159;SDS011;8185;57.818;15.224;2022-11-03T13:14:57;5.47;;;1.30;;
16159;SDS011;8185;57.818;15.224;2022-11-03T13:17:24;8.90;;;1.90;;
16159;SDS011;8185;57.818;15.224;2022-11-03T13:19:52;5.03;;;1.10;;
16159;SDS011;8185;57.818;15.224;2022-11-03T13:22:20;5.40;;;1.23;;
16159;SDS011;8185;57.818;15.224;2022-11-03T13:24:47;7.33;;;1.17;;
16159;SDS011;8185;57.818;15.224;2022-11-03T13:27:16;7.13;;;1.90;;
16159;SDS011;8185;57.818;15.224;2022-11-03T13:29:43;5.03;;;1.20;;
16159;SDS011;8185;57.818;15.224;2022-11-03T13:32:11;4.50;;;1.20;;
16159;SDS011;8185;57.818;15.224;2022-11-03T13:34:38;3.27;;;1.10;;
16159;SDS011;8185;57.818;15.224;2022-11-03T13:37:05;4.47;;;1.30;;
16159;SDS011;8185;57.818;15.224;2022-11-03T13:39:33;3.53;;;0.97;;
16159;SDS011;8185;57.818;15.224;2022-11-03T13:42:01;7.33;;;1.77;;
16159;SDS011;8185;57.818;15.224;2022-11-03T13:44:29;3.67;;;1.20;;
16159;SDS011;8185;57.818;15.224;2022-11-03T13:46:56;7.80;;;1.47;;
16159;SDS011;8185;57.818;15.224;2022-11-03T13:49:24;4.83;;;1.43;;
16159;SDS011;8185;57.818;15.224;2022-11-03T13:51:51;7.00;;;1.37;;
16159;SDS011;8185;57.818;15.224;2022-11-03T13:54:18;4.53;;;1.50;;
16159;SDS011;8185;57.818;15.224;2022-11-03T13:56:46;4.17;;;1.20;;
16159;SDS011;8185;57.818;15.224;2022-11-03T13:59:13;7.63;;;2.47;;
16159;SDS011;8185;57.818;15.224;2022-11-03T14:01:42;4.73;;;1.30;;
16159;SDS011;8185;57.818;15.224;2022-11-03T14:04:09;2.23;;;1.10;;
16159;SDS011;8185;57.818;15.224;2022-11-03T14:06:36;3.63;;;1.43;;
16159;SDS011;8185;57.818;15.224;2022-11-03T14:09:04;6.03;;;1.53;;
16159;SDS011;8185;57.818;15.224;2022-11-03T14:11:31;4.87;;;1.23;;
16159;SDS011;8185;57.818;15.224;2022-11-03T14:14:16;5.03;;;1.30;;
16159;SDS011;8185;57.818;15.224;2022-11-03T14:16:44;4.47;;;1.33;;
16159;SDS011;8185;57.818;15.224;2022-11-03T14:19:12;3.90;;;1.10;;
16159;SDS011;8185;57.818;15.224;2022-11-03T14:21:39;2.03;;;1.00;;
16159;SDS011;8185;57.818;15.224;2022-11-03T14:24:07;4.70;;;1.50;;
16159;SDS011;8185;57.818;15.224;2022-11-03T14:26:35;3.63;;;1.20;;
16159;SDS011;8185;57.818;15.224;2022-11-03T14:29:02;5.97;;;0.97;;
16159;SDS011;8185;57.818;15.224;2022-11-03T14:31:29;4.13;;;1.30;;
16159;SDS011;8185;57.818;15.224;2022-11-03T14:33:58;5.60;;;1.40;;
16159;SDS011;8185;57.818;15.224;2022-11-03T14:36:26;3.77;;;1.23;;
16159;SDS011;8185;57.818;15.224;2022-11-03T14:38:54;7.50;;;1.50;;
16159;SDS011;8185;57.818;15.224;2022-11-03T14:41:21;6.43;;;1.30;;
16159;SDS011;8185;57.818;15.224;2022-11-03T14:44:06;8.27;;;1.33;;
16159;SDS011;8185;57.818;15.224;2022-11-03T14:46:33;3.40;;;1.20;;
16159;SDS011;8185;57.818;15.224;2022-11-03T14:49:02;8.63;;;1.67;;
16159;SDS011;8185;57.818;15.224;2022-11-03T14:51:29;7.63;;;1.93;;
16159;SDS011;8185;57.818;15.224;2022-11-03T14:53:56;6.43;;;1.10;;
16159;SDS011;8185;57.818;15.224;2022-11-03T14:56:24;5.33;;;2.00;;
16159;SDS011;8185;57.818;15.224;2022-11-03T14:58:51;4.60;;;1.40;;
16159;SDS011;8185;57.818;15.224;2022-11-03T15:01:19;4.53;;;1.60;;
16159;SDS011;8185;57.818;15.224;2022-11-03T15:03:46;2.70;;;1.13;;
16159;SDS011;8185;57.818;15.224;2022-11-03T15:06:15;5.27;;;1.33;;
16159;SDS011;8185;57.818;15.224;2022-11-03T15:08:42;5.10;;;1.33;;
16159;SDS011;8185;57.818;15.224;2022-11-03T15:11:10;6.57;;;1.40;;
16159;SDS011;8185;57.818;15.224;2022-11-03T15:13:37;5.97;;;1.10;;
16159;SDS011;8185;57.818;15.224;2022-11-03T15:16:05;6.90;;;1.97;;
16159;SDS011;8185;57.818;15.224;2022-11-03T15:18:32;7.43;;;1.80;;
16159;SDS011;8185;57.818;15.224;2022-11-03T15:21:00;6.13;;;1.13;;
16159;SDS011;8185;57.818;15.224;2022-11-03T15:23:28;4.63;;;1.43;;
16159;SDS011;8185;57.818;15.224;2022-11-03T15:25:55;9.67;;;2.40;;
16159;SDS011;8185;57.818;15.224;2022-11-03T15:28:23;4.97;;;1.80;;
16159;SDS011;8185;57.818;15.224;2022-11-03T15:30:50;18.93;;;10.27;;
16159;SDS011;8185;57.818;15.224;2022-11-03T15:33:17;14.40;;;10.00;;
16159;SDS011;8185;57.818;15.224;2022-11-03T15:35:45;20.57;;;11.90;;
16159;SDS011;8185;57.818;15.224;2022-11-03T15:38:12;10.67;;;2.50;;
16159;SDS011;8185;57.818;15.224;2022-11-03T15:40:40;7.80;;;1.60;;
16159;SDS011;8185;57.818;15.224;2022-11-03T15:43:08;4.80;;;1.40;;
16159;SDS011;8185;57.818;15.224;2022-11-03T15:45:35;10.47;;;2.83;;